Time;durP1;ratioP1;P1;durP2;ratioP2;P2;SDS_P1;SDS_P2;PMS_P1;PMS_P2;Temp;Humidity;BMP_temperature;BMP_pressure;BME280_temperature;BME280_humidity;BME280_pressure;Samples;Min_cycle;Max_cycle;Signal;HPM_P1;HPM_P2
2023/12/09 00:01:09;;;;;;;75.65;33.72;;;;;;;4.19;100.00;100233.16;5063183;28;20041;-66
2023/12/09 00:03:39;;;;;;;73.75;34.03;;;;;;;4.23;100.00;100233.94;5050502;28;20134;-65
2023/12/09 00:06:07;;;;;;;74.22;34.90;;;;;;;4.26;100.00;100238.22;5073429;28;20102;-67
2023/12/09 00:08:36;;;;;;;81.63;36.90;;;;;;;4.19;100.00;100242.75;5068664;28;20048;-65
2023/12/09 00:11:05;;;;;;;93.32;38.75;;;;;;;4.12;100.00;100246.41;5073443;28;20052;-67
2023/12/09 00:13:33;;;;;;;81.47;37.35;;;;;;;4.09;100.00;100254.38;5083191;28;20055;-68
2023/12/09 00:16:02;;;;;;;91.07;37.17;;;;;;;4.01;100.00;100262.38;5066472;28;20041;-66
2023/12/09 00:18:29;;;;;;;89.93;37.42;;;;;;;3.98;100.00;100278.16;5071077;28;20096;-66
2023/12/09 00:21:00;;;;;;;79.93;35.58;;;;;;;3.96;100.00;100272.09;5069426;28;20076;-68
2023/12/09 00:23:27;;;;;;;88.07;37.25;;;;;;;4.02;100.00;100265.88;5062830;28;20114;-65
2023/12/09 00:25:55;;;;;;;89.97;37.65;;;;;;;4.03;100.00;100262.34;5080041;28;20506;-67
2023/12/09 00:28:23;;;;;;;91.82;37.67;;;;;;;4.03;100.00;100265.84;5047467;28;20052;-67
2023/12/09 00:30:51;;;;;;;89.50;37.83;;;;;;;4.02;100.00;100273.72;5063560;28;20056;-67
2023/12/09 00:33:20;;;;;;;87.70;37.90;;;;;;;3.99;100.00;100272.03;5065197;28;20044;-67
2023/12/09 00:35:48;;;;;;;92.68;39.80;;;;;;;3.97;100.00;100276.44;5063956;28;20094;-67
2023/12/09 00:38:19;;;;;;;98.13;40.55;;;;;;;3.94;100.00;100281.75;5081391;28;20041;-66
2023/12/09 00:40:47;;;;;;;85.93;38.85;;;;;;;3.94;100.00;100278.25;5063348;28;20487;-68
2023/12/09 00:43:16;;;;;;;101.40;39.13;;;;;;;3.94;100.00;100267.78;5064018;28;20094;-68
2023/12/09 00:45:45;;;;;;;90.43;38.13;;;;;;;4.00;100.00;100276.38;5059689;28;20039;-67
2023/12/09 00:48:14;;;;;;;88.00;36.35;;;;;;;4.06;100.00;100272.78;5059522;28;20048;-66
2023/12/09 00:50:46;;;;;;;92.22;38.05;;;;;;;4.13;100.00;100271.72;5061904;28;20044;-66
2023/12/09 00:53:15;;;;;;;94.00;38.40;;;;;;;4.17;100.00;100282.09;5078315;28;20329;-66
2023/12/09 00:55:45;;;;;;;92.40;38.33;;;;;;;4.20;100.00;100281.19;5060446;28;20048;-66
2023/12/09 00:58:14;;;;;;;77.90;35.38;;;;;;;4.22;100.00;100282.00;5064255;28;20047;-65
2023/12/09 01:00:42;;;;;;;84.28;38.45;;;;;;;4.31;100.00;100291.41;5077460;28;20045;-66
2023/12/09 01:03:10;;;;;;;81.57;37.28;;;;;;;4.32;100.00;100286.13;5062201;28;20509;-65
2023/12/09 01:05:39;;;;;;;90.40;37.67;;;;;;;4.35;100.00;100296.56;5073249;28;20769;-66
2023/12/09 01:08:07;;;;;;;84.28;36.95;;;;;;;4.39;100.00;100300.84;5064636;28;20045;-69
2023/12/09 01:10:35;;;;;;;88.90;38.53;;;;;;;4.48;100.00;100295.38;5063791;28;20052;-66
2023/12/09 01:13:04;;;;;;;89.53;37.90;;;;;;;4.47;100.00;100293.63;5064932;28;20040;-69
2023/12/09 01:15:33;;;;;;;81.45;37.17;;;;;;;4.46;100.00;100297.16;5059831;28;20081;-67
2023/12/09 01:18:02;;;;;;;86.32;37.42;;;;;;;4.50;100.00;100298.81;5067399;28;20048;-67
2023/12/09 01:20:30;;;;;;;80.85;36.13;;;;;;;4.50;100.00;100293.56;5071048;28;20059;-66
2023/12/09 01:22:58;;;;;;;80.75;37.40;;;;;;;4.44;100.00;100291.09;5062505;28;20040;-66
2023/12/09 01:25:25;;;;;;;81.50;36.88;;;;;;;4.43;100.00;100299.84;5081689;28;20029;-67
2023/12/09 01:27:53;;;;;;;82.50;36.58;;;;;;;4.39;100.00;100303.47;5063797;28;20050;-68
2023/12/09 01:30:23;;;;;;;87.20;37.80;;;;;;;4.40;100.00;100294.69;5062806;28;20661;-66
2023/12/09 01:32:51;;;;;;;79.63;36.75;;;;;;;4.42;100.00;100290.25;5061007;28;20052;-66
2023/12/09 01:35:19;;;;;;;88.20;37.85;;;;;;;4.51;100.00;100292.69;5060418;28;20147;-65
2023/12/09 01:37:47;;;;;;;85.22;37.30;;;;;;;4.54;100.00;100297.84;5061066;28;20055;-68
2023/12/09 01:40:15;;;;;;;84.38;38.60;;;;;;;4.57;100.00;100307.38;5060045;28;21959;-66
2023/12/09 01:42:44;;;;;;;82.75;37.25;;;;;;;4.51;100.00;100313.66;5052250;28;20045;-66
2023/12/09 01:45:12;;;;;;;86.75;37.65;;;;;;;4.48;100.00;100324.22;5061487;28;20050;-66
2023/12/09 01:47:42;;;;;;;91.15;38.83;;;;;;;4.41;100.00;100325.22;5062224;28;20146;-66
2023/12/09 01:50:12;;;;;;;96.03;38.53;;;;;;;4.38;100.00;100330.56;5076506;28;20040;-64
2023/12/09 01:52:41;;;;;;;86.32;39.58;;;;;;;4.40;100.00;100327.91;5059744;28;20047;-64
2023/12/09 01:55:11;;;;;;;98.53;39.42;;;;;;;4.40;100.00;100325.28;5064379;28;20044;-68
2023/12/09 01:57:40;;;;;;;74.95;34.60;;;;;;;4.36;100.00;100319.25;5061765;28;21310;-68
2023/12/09 02:00:12;;;;;;;80.75;37.17;;;;;;;4.36;100.00;100316.63;5060825;28;20045;-66
2023/12/09 02:02:44;;;;;;;82.55;35.80;;;;;;;4.38;100.00;100313.97;5053912;28;20046;-66
2023/12/09 02:05:13;;;;;;;85.60;37.90;;;;;;;4.41;100.00;100312.13;5062441;28;20538;-67
2023/12/09 02:07:41;;;;;;;78.50;36.47;;;;;;;4.43;100.00;100297.22;5062655;28;20666;-66
2023/12/09 02:10:10;;;;;;;83.03;35.92;;;;;;;4.47;100.00;100304.13;5076388;28;20048;-65
2023/12/09 02:12:44;;;;;;;87.55;36.92;;;;;;;4.50;100.00;100295.34;5059361;28;20190;-66
2023/12/09 02:15:18;;;;;;;81.13;35.88;;;;;;;4.52;100.00;100294.41;5061824;28;20490;-65
2023/12/09 02:17:53;;;;;;;80.30;35.30;;;;;;;4.53;100.00;100284.78;5058652;28;20060;-67
2023/12/09 02:20:22;;;;;;;80.30;36.15;;;;;;;4.57;100.00;100289.88;5061264;28;20515;-66
2023/12/09 02:22:50;;;;;;;79.63;35.53;;;;;;;4.57;100.00;100286.41;5038477;28;20041;-66
2023/12/09 02:25:20;;;;;;;82.88;35.80;;;;;;;4.62;100.00;100275.81;5061068;28;20068;-64
2023/12/09 02:27:54;;;;;;;77.82;35.58;;;;;;;4.59;100.00;100255.75;5062057;28;20041;-66
2023/12/09 02:30:31;;;;;;;82.10;35.92;;;;;;;4.66;100.00;100254.72;5050214;28;20110;-66
2023/12/09 02:33:02;;;;;;;68.68;33.08;;;;;;;4.69;100.00;100253.78;5081132;28;20036;-67
2023/12/09 02:35:35;;;;;;;67.30;32.60;;;;;;;4.64;100.00;100246.03;5049331;28;20045;-66
2023/12/09 02:38:05;;;;;;;71.03;33.78;;;;;;;4.64;100.00;100238.16;5083028;28;20056;-65
2023/12/09 02:40:38;;;;;;;73.82;34.88;;;;;;;4.59;100.00;100248.75;5069876;28;20131;-66
2023/12/09 02:43:09;;;;;;;73.85;33.78;;;;;;;4.52;100.00;100234.09;5061717;28;20074;-67
2023/12/09 02:45:41;;;;;;;70.15;33.78;;;;;;;4.50;100.00;100233.25;5068652;28;20049;-66
2023/12/09 02:48:09;;;;;;;75.63;35.00;;;;;;;4.44;100.00;100240.41;5084077;28;20118;-67
2023/12/09 02:50:38;;;;;;;82.00;37.83;;;;;;;4.31;100.00;100231.97;5070926;28;20074;-65
2023/12/09 02:53:07;;;;;;;82.78;35.17;;;;;;;4.23;100.00;100232.19;5072837;28;20052;-66
2023/12/09 02:55:36;;;;;;;74.82;35.50;;;;;;;4.25;100.00;100220.81;5077592;28;20044;-65
2023/12/09 02:58:15;;;;;;;74.53;36.10;;;;;;;4.26;100.00;100207.63;5079104;28;20066;-64
2023/12/09 03:00:43;;;;;;;84.93;38.28;;;;;;;4.21;100.00;100199.91;5095767;28;20063;-65
2023/12/09 03:03:12;;;;;;;86.03;38.47;;;;;;;4.23;100.00;100212.97;5079597;28;20056;-65
2023/12/09 03:05:40;;;;;;;86.40;37.58;;;;;;;4.18;100.00;100204.34;5067567;28;20064;-63
2023/12/09 03:08:07;;;;;;;84.07;38.00;;;;;;;4.18;100.00;100199.09;5049726;28;20251;-63
2023/12/09 03:10:37;;;;;;;90.25;38.28;;;;;;;4.18;100.00;100193.88;5060778;28;20091;-65
2023/12/09 03:13:05;;;;;;;92.65;38.47;;;;;;;4.16;100.00;100191.28;5078237;28;20637;-65
2023/12/09 03:15:33;;;;;;;94.13;40.85;;;;;;;4.18;100.00;100196.47;5080310;28;20050;-66
2023/12/09 03:18:00;;;;;;;90.35;38.97;;;;;;;4.14;100.00;100179.97;5087206;28;20051;-66
2023/12/09 03:20:29;;;;;;;93.80;40.70;;;;;;;4.11;100.00;100166.06;5083444;28;20056;-66
2023/12/09 03:22:57;;;;;;;102.13;40.80;;;;;;;4.15;100.00;100188.69;5095408;28;20048;-66
2023/12/09 03:25:25;;;;;;;81.85;37.17;;;;;;;4.15;100.00;100188.69;5073090;28;20071;-66
2023/12/09 03:27:55;;;;;;;93.13;39.80;;;;;;;4.15;100.00;100189.56;5076892;28;20103;-66
2023/12/09 03:30:25;;;;;;;98.95;41.40;;;;;;;4.17;100.00;100197.38;5076234;28;20141;-65
2023/12/09 03:32:55;;;;;;;101.22;40.60;;;;;;;4.15;100.00;100186.06;5077000;28;20103;-66
2023/12/09 03:35:24;;;;;;;108.03;41.08;;;;;;;4.14;100.00;100203.56;5073206;28;20870;-65
2023/12/09 03:37:51;;;;;;;103.50;41.25;;;;;;;4.10;100.00;100199.28;5073543;28;20056;-66
2023/12/09 03:40:19;;;;;;;108.18;40.97;;;;;;;4.08;100.00;100208.09;5071896;28;20295;-66
2023/12/09 03:42:47;;;;;;;121.78;44.20;;;;;;;4.05;100.00;100208.16;5074364;28;20662;-65
2023/12/09 03:45:17;;;;;;;116.97;43.60;;;;;;;4.01;100.00;100211.75;5071523;28;20045;-66
2023/12/09 03:47:45;;;;;;;138.95;46.92;;;;;;;3.99;100.00;100208.28;5070271;28;20108;-66
2023/12/09 03:50:16;;;;;;;133.07;44.72;;;;;;;3.99;100.00;100211.78;5077149;28;20255;-65
2023/12/09 03:52:45;;;;;;;114.32;42.03;;;;;;;4.01;100.00;100216.97;5097721;28;20041;-64
2023/12/09 03:55:15;;;;;;;121.47;43.67;;;;;;;4.02;100.00;100216.94;5073519;28;20045;-66
2023/12/09 03:57:43;;;;;;;120.00;43.30;;;;;;;4.04;100.00;100220.41;5068249;28;20048;-66
2023/12/09 04:00:12;;;;;;;102.68;39.80;;;;;;;4.06;100.00;100217.75;5071452;28;20454;-65
2023/12/09 04:02:42;;;;;;;106.05;38.35;;;;;;;4.08;100.00;100214.19;5049807;28;20564;-65
2023/12/09 04:05:10;;;;;;;106.65;41.25;;;;;;;4.15;100.00;100215.75;5068644;28;20044;-65
2023/12/09 04:07:39;;;;;;;97.00;38.47;;;;;;;4.21;100.00;100217.38;5054679;28;20052;-67
2023/12/09 04:10:09;;;;;;;105.47;40.28;;;;;;;4.19;100.00;100222.66;5059270;28;20454;-65
2023/12/09 04:12:38;;;;;;;100.82;38.85;;;;;;;4.19;100.00;100214.78;5077888;28;20148;-65
2023/12/09 04:15:11;;;;;;;96.60;38.55;;;;;;;4.19;100.00;100212.19;5062169;28;20140;-65
2023/12/09 04:17:39;;;;;;;92.82;36.53;;;;;;;4.20;100.00;100213.03;5066847;28;20052;-66
2023/12/09 04:20:10;;;;;;;88.22;37.22;;;;;;;4.19;100.00;100203.44;5064743;28;20106;-63
2023/12/09 04:22:38;;;;;;;87.45;37.05;;;;;;;4.29;100.00;100201.47;5068788;28;20048;-65
2023/12/09 04:25:07;;;;;;;83.75;34.60;;;;;;;4.34;100.00;100208.31;5068721;28;20123;-66
2023/12/09 04:27:36;;;;;;;87.43;35.78;;;;;;;4.44;100.00;100212.44;5067780;28;20040;-65
2023/12/09 04:30:05;;;;;;;79.85;34.83;;;;;;;4.49;100.00;100194.81;5065020;28;20044;-65
2023/12/09 04:32:36;;;;;;;80.70;36.10;;;;;;;4.50;100.00;100186.06;5082230;28;20123;-67
2023/12/09 04:35:06;;;;;;;82.82;36.13;;;;;;;4.51;100.00;100184.31;5071002;28;20147;-66
2023/12/09 04:37:35;;;;;;;81.22;34.95;;;;;;;4.48;100.00;100169.50;5075188;28;20068;-67
2023/12/09 04:40:04;;;;;;;73.07;33.15;;;;;;;4.49;100.00;100173.84;5075314;28;20051;-64
2023/12/09 04:42:32;;;;;;;77.85;35.28;;;;;;;4.45;100.00;100177.44;5071441;28;20111;-64
2023/12/09 04:45:00;;;;;;;83.75;35.70;;;;;;;4.41;100.00;100177.56;5066144;28;20032;-67
2023/12/09 04:47:28;;;;;;;79.68;35.30;;;;;;;4.39;100.00;100176.75;5081826;28;20141;-66
2023/12/09 04:49:58;;;;;;;80.65;34.13;;;;;;;4.34;100.00;100173.38;5077102;28;20121;-66
2023/12/09 04:52:29;;;;;;;77.15;34.60;;;;;;;4.37;100.00;100189.91;5060670;28;20049;-66
2023/12/09 04:54:59;;;;;;;83.47;36.38;;;;;;;4.38;100.00;100175.91;5063724;28;20065;-67
2023/12/09 04:57:27;;;;;;;88.13;36.50;;;;;;;4.31;100.00;100174.31;5048314;28;20047;-66
2023/12/09 04:59:56;;;;;;;89.65;37.45;;;;;;;4.31;100.00;100166.44;5058376;28;20047;-64
2023/12/09 05:02:25;;;;;;;87.38;36.63;;;;;;;4.28;100.00;100169.16;5059373;28;20041;-65
2023/12/09 05:04:56;;;;;;;89.03;37.38;;;;;;;4.28;100.00;100165.66;5060491;28;20725;-68
2023/12/09 05:07:26;;;;;;;86.32;35.03;;;;;;;4.23;100.00;100150.94;5063467;28;20044;-68
2023/12/09 05:09:53;;;;;;;82.43;35.83;;;;;;;4.30;100.00;100169.09;5060495;28;20055;-64
2023/12/09 05:12:26;;;;;;;74.85;33.58;;;;;;;4.30;100.00;100156.88;5056512;28;20208;-67
2023/12/09 05:14:56;;;;;;;86.22;35.53;;;;;;;4.34;100.00;100155.03;5061374;28;20450;-66
2023/12/09 05:17:24;;;;;;;87.13;36.72;;;;;;;4.37;100.00;100163.69;5064002;28;20128;-66
2023/12/09 05:19:53;;;;;;;92.93;38.25;;;;;;;4.39;100.00;100164.50;5061830;28;20139;-66
2023/12/09 05:22:22;;;;;;;94.45;38.15;;;;;;;4.35;100.00;100169.88;5058607;28;20055;-67
2023/12/09 05:24:52;;;;;;;85.60;35.80;;;;;;;4.34;100.00;100166.38;5078120;28;20563;-66
2023/12/09 05:27:20;;;;;;;85.07;37.17;;;;;;;4.37;100.00;100165.44;5060777;28;21160;-66
2023/12/09 05:29:50;;;;;;;90.78;36.70;;;;;;;4.34;100.00;100145.41;5059062;28;20051;-66
2023/12/09 05:32:18;;;;;;;86.80;36.35;;;;;;;4.34;100.00;100155.91;5056563;28;20064;-68
2023/12/09 05:34:45;;;;;;;84.40;35.33;;;;;;;4.34;100.00;100152.41;5062670;28;20423;-66
2023/12/09 05:37:15;;;;;;;95.55;38.08;;;;;;;4.29;100.00;100149.03;5061354;28;20098;-65
2023/12/09 05:39:43;;;;;;;96.18;38.35;;;;;;;4.27;100.00;100151.69;5059619;28;20542;-65
2023/12/09 05:42:15;;;;;;;101.45;38.58;;;;;;;4.22;100.00;100140.47;5053092;28;20067;-66
2023/12/09 05:44:43;;;;;;;96.47;39.95;;;;;;;4.26;100.00;100146.47;5059185;28;20404;-65
2023/12/09 05:47:12;;;;;;;92.20;37.53;;;;;;;4.23;100.00;100131.72;5060878;28;20699;-67
2023/12/09 05:49:40;;;;;;;99.70;39.13;;;;;;;4.30;100.00;100132.41;5063572;28;20052;-66
2023/12/09 05:52:08;;;;;;;93.53;37.40;;;;;;;4.35;100.00;100139.28;5059409;28;20047;-66
2023/12/09 05:54:37;;;;;;;96.55;38.55;;;;;;;4.36;100.00;100141.00;5063009;28;20051;-68
2023/12/09 05:57:07;;;;;;;98.05;38.47;;;;;;;4.32;100.00;100126.22;5078703;28;20041;-66
2023/12/09 05:59:35;;;;;;;88.35;36.40;;;;;;;4.32;100.00;100125.38;5062490;28;20089;-67
2023/12/09 06:02:05;;;;;;;87.57;36.90;;;;;;;4.38;100.00;100126.09;5050866;28;20531;-67
2023/12/09 06:04:34;;;;;;;82.50;35.38;;;;;;;4.43;100.00;100121.56;5062297;28;20045;-65
2023/12/09 06:07:03;;;;;;;82.55;36.17;;;;;;;4.44;100.00;100118.03;5077898;28;20044;-66
2023/12/09 06:09:31;;;;;;;80.90;34.38;;;;;;;4.44;100.00;100099.69;5045233;28;20049;-67
2023/12/09 06:11:59;;;;;;;80.50;33.83;;;;;;;4.49;100.00;100107.44;5059532;28;20064;-67
2023/12/09 06:14:27;;;;;;;84.10;35.20;;;;;;;4.52;100.00;100108.22;5062933;28;20044;-65
2023/12/09 06:16:55;;;;;;;86.88;38.03;;;;;;;4.49;100.00;100110.91;5059518;28;20587;-65
2023/12/09 06:19:24;;;;;;;79.97;35.85;;;;;;;4.51;100.00;100097.78;5057498;28;20127;-65
2023/12/09 06:21:53;;;;;;;82.25;34.78;;;;;;;4.52;100.00;100110.84;5052581;28;20576;-67
2023/12/09 06:24:21;;;;;;;93.90;38.05;;;;;;;4.52;100.00;100108.22;5062042;28;20045;-67
2023/12/09 06:26:50;;;;;;;82.88;36.08;;;;;;;4.51;100.00;100093.41;5076216;28;20048;-65
2023/12/09 06:29:18;;;;;;;85.53;36.70;;;;;;;4.55;100.00;100116.03;5062825;28;20124;-66
2023/12/09 06:31:46;;;;;;;82.72;37.00;;;;;;;4.55;100.00;100099.41;5057790;28;20040;-68
2023/12/09 06:34:14;;;;;;;80.32;36.72;;;;;;;4.55;100.00;100094.19;5059859;28;20391;-66
2023/12/09 06:36:42;;;;;;;86.10;37.85;;;;;;;4.57;100.00;100095.81;5061340;28;20123;-66
2023/12/09 06:39:16;;;;;;;85.70;36.70;;;;;;;4.55;100.00;100095.03;5055374;28;20052;-66
2023/12/09 06:41:45;;;;;;;87.30;36.72;;;;;;;4.58;100.00;100102.78;5058119;28;20624;-68
2023/12/09 06:44:13;;;;;;;74.68;34.90;;;;;;;4.57;100.00;100108.94;5078170;28;20452;-67
2023/12/09 06:46:42;;;;;;;76.53;35.22;;;;;;;4.56;100.00;100099.34;5077088;28;20040;-66
2023/12/09 06:49:10;;;;;;;72.38;32.78;;;;;;;4.54;100.00;100103.81;5062893;28;20067;-68
2023/12/09 06:51:40;;;;;;;72.95;35.63;;;;;;;4.51;100.00;100101.25;5077619;28;20040;-65
2023/12/09 06:54:13;;;;;;;74.40;33.67;;;;;;;4.48;100.00;100096.09;5066530;28;20048;-68
2023/12/09 06:56:41;;;;;;;66.85;32.60;;;;;;;4.51;100.00;100103.03;5062713;28;20045;-69
2023/12/09 06:59:10;;;;;;;79.55;35.63;;;;;;;4.55;100.00;100100.28;5057587;28;20059;-67
2023/12/09 07:01:38;;;;;;;73.88;33.50;;;;;;;4.58;100.00;100091.44;5053709;28;20434;-69
2023/12/09 07:04:09;;;;;;;73.30;34.70;;;;;;;4.26;100.00;100039.88;5058089;28;20084;-67
2023/12/09 07:06:40;;;;;;;72.10;34.13;;;;;;;4.59;100.00;100096.66;5079399;28;20091;-69
2023/12/09 07:09:09;;;;;;;68.18;33.67;;;;;;;4.62;100.00;100086.97;5063519;28;20071;-66
2023/12/09 07:11:39;;;;;;;77.20;35.47;;;;;;;4.69;100.00;100096.41;5065162;28;20052;-66
2023/12/09 07:14:09;;;;;;;81.90;34.95;;;;;;;4.65;100.00;100095.63;5066352;28;20057;-65
2023/12/09 07:16:37;;;;;;;65.50;33.50;;;;;;;4.62;100.00;100100.97;5066601;28;20147;-67
2023/12/09 07:19:06;;;;;;;66.68;32.30;;;;;;;4.64;100.00;100095.69;5063943;28;20056;-68
2023/12/09 07:21:34;;;;;;;69.80;33.38;;;;;;;4.64;100.00;100099.16;5065995;28;20048;-66
2023/12/09 07:24:04;;;;;;;71.88;33.97;;;;;;;4.66;100.00;100107.00;5069282;28;21080;-68
2023/12/09 07:26:35;;;;;;;73.93;34.45;;;;;;;4.68;100.00;100100.81;5066711;28;20056;-66
2023/12/09 07:29:05;;;;;;;80.38;34.30;;;;;;;4.69;100.00;100110.41;5066444;28;20048;-69
2023/12/09 07:31:34;;;;;;;79.90;34.72;;;;;;;4.70;100.00;100096.38;5062053;28;20060;-66
2023/12/09 07:34:01;;;;;;;74.68;33.78;;;;;;;4.71;100.00;100095.47;5057195;28;20057;-66
2023/12/09 07:36:30;;;;;;;73.47;34.33;;;;;;;4.74;100.00;100084.88;5066479;28;20048;-67
2023/12/09 07:38:58;;;;;;;72.95;34.22;;;;;;;4.78;100.00;100085.66;5067332;28;20063;-66
2023/12/09 07:41:26;;;;;;;74.50;34.45;;;;;;;4.83;100.00;100089.88;5050028;28;20079;-66
2023/12/09 07:43:54;;;;;;;75.57;35.22;;;;;;;4.84;100.00;100091.59;5078670;28;20048;-67
2023/12/09 07:46:24;;;;;;;73.50;34.97;;;;;;;4.79;100.00;100082.13;5065437;28;20048;-66
2023/12/09 07:48:51;;;;;;;73.90;33.33;;;;;;;4.78;100.00;100091.75;5064253;28;20045;-67
2023/12/09 07:51:20;;;;;;;78.25;34.95;;;;;;;4.75;100.00;100085.72;5061056;28;20044;-65
2023/12/09 07:53:48;;;;;;;76.45;34.17;;;;;;;4.75;100.00;100075.25;5054858;28;20051;-67
2023/12/09 07:56:16;;;;;;;72.00;33.30;;;;;;;4.69;100.00;100065.81;5082047;28;20091;-65
2023/12/09 07:58:45;;;;;;;75.07;32.70;;;;;;;4.76;100.00;100075.19;5068722;28;20103;-68
2023/12/09 08:01:13;;;;;;;73.90;32.72;;;;;;;4.78;100.00;100075.16;5062567;28;20052;-66
2023/12/09 08:03:45;;;;;;;81.55;35.17;;;;;;;4.77;100.00;100078.69;5062494;28;20404;-66
2023/12/09 08:06:13;;;;;;;80.22;36.35;;;;;;;4.80;100.00;100068.97;5065831;28;20059;-68
2023/12/09 08:08:41;;;;;;;83.03;35.13;;;;;;;4.80;100.00;100062.88;5050904;28;20068;-65
2023/12/09 08:11:09;;;;;;;78.85;33.80;;;;;;;4.79;100.00;100067.25;5062983;28;20090;-67
2023/12/09 08:13:39;;;;;;;80.90;33.55;;;;;;;4.83;100.00;100070.66;5063210;28;20047;-67
2023/12/09 08:16:07;;;;;;;73.90;34.58;;;;;;;4.86;100.00;100045.19;5064008;28;20057;-66
2023/12/09 08:18:35;;;;;;;80.25;35.70;;;;;;;4.93;100.00;100049.34;5064940;28;20048;-67
2023/12/09 08:21:05;;;;;;;81.25;35.30;;;;;;;4.95;100.00;100038.81;5063681;28;20079;-66
2023/12/09 08:23:34;;;;;;;78.67;34.77;;;;;;;5.03;100.00;100039.44;5056838;28;20131;-66
2023/12/09 08:26:03;;;;;;;85.57;37.42;;;;;;;5.07;100.00;100046.31;5076331;28;20055;-66
2023/12/09 08:28:31;;;;;;;84.10;36.63;;;;;;;5.08;100.00;100050.66;5062996;28;20090;-67
2023/12/09 08:30:59;;;;;;;90.00;37.85;;;;;;;5.10;100.00;100043.59;5064079;28;20046;-66
2023/12/09 08:33:27;;;;;;;91.10;37.08;;;;;;;5.11;100.00;100045.31;5076191;28;20036;-68
2023/12/09 08:35:55;;;;;;;87.32;36.80;;;;;;;5.11;100.00;100034.81;5064634;28;20045;-67
2023/12/09 08:38:25;;;;;;;91.72;36.92;;;;;;;5.14;100.00;100033.88;5082037;28;20045;-67
2023/12/09 08:40:54;;;;;;;85.00;35.55;;;;;;;5.16;100.00;100024.19;5066998;28;20051;-66
2023/12/09 08:43:22;;;;;;;92.25;37.83;;;;;;;5.21;100.00;100023.13;5065443;28;20509;-67
2023/12/09 08:45:50;;;;;;;88.32;36.83;;;;;;;5.24;100.00;100023.03;5066379;28;20059;-68
2023/12/09 08:48:18;;;;;;;85.90;35.70;;;;;;;5.25;100.00;100019.50;5082275;28;20049;-65
2023/12/09 08:50:47;;;;;;;93.10;36.92;;;;;;;5.27;100.00;100017.69;5071130;28;20066;-67
2023/12/09 08:53:15;;;;;;;90.22;37.38;;;;;;;5.29;100.00;100013.25;5068296;28;20039;-66
2023/12/09 08:55:46;;;;;;;79.15;36.08;;;;;;;5.32;100.00;100016.69;5071795;28;20810;-67
2023/12/09 08:58:16;;;;;;;;;;;;;;;5.35;100.00;100011.34;5072755;28;20052;-66
2023/12/09 09:00:43;;;;;;;78.70;33.58;;;;;;;5.36;100.00;100015.66;5070183;28;19924;-66
2023/12/09 09:03:13;;;;;;;69.05;33.05;;;;;;;5.44;100.00;100005.78;5065122;28;20056;-67
2023/12/09 09:05:42;;;;;;;75.03;32.25;;;;;;;5.52;100.00;100002.00;5074133;28;20036;-66
2023/12/09 09:08:11;;;;;;;81.28;35.10;;;;;;;5.60;100.00;99983.38;5067864;28;20060;-67
2023/12/09 09:10:39;;;;;;;70.03;33.92;;;;;;;5.66;100.00;99977.06;5071425;28;20044;-67
2023/12/09 09:13:08;;;;;;;76.35;33.92;;;;;;;5.72;100.00;99974.22;5064009;28;20040;-64
2023/12/09 09:15:36;;;;;;;71.18;34.65;;;;;;;5.86;100.00;99970.22;5066029;28;20071;-66
2023/12/09 09:18:07;;;;;;;;;;;;;;;5.98;100.00;99956.66;5082306;28;20052;-65
2023/12/09 09:20:35;;;;;;;61.47;31.08;;;;;;;6.05;100.00;99940.69;5063270;28;19928;-66
2023/12/09 09:23:03;;;;;;;62.78;31.15;;;;;;;6.14;100.00;99949.09;5074347;28;20044;-67
2023/12/09 09:25:32;;;;;;;58.92;29.90;;;;;;;6.20;100.00;99955.91;5063368;28;20056;-65
2023/12/09 09:28:03;;;;;;;66.15;31.15;;;;;;;6.29;100.00;99958.22;5063038;28;20044;-65
2023/12/09 09:30:33;;;;;;;66.90;30.90;;;;;;;6.36;100.00;99954.44;5062727;28;20063;-68
2023/12/09 09:33:06;;;;;;;59.90;29.40;;;;;;;6.38;100.00;99950.00;5060958;28;20044;-66
2023/12/09 09:35:34;;;;;;;50.38;27.50;;;;;;;6.45;100.00;99955.88;5065597;28;20048;-66
2023/12/09 09:38:02;;;;;;;55.38;28.75;;;;;;;6.53;100.00;99949.41;5064333;28;20032;-66
2023/12/09 09:40:31;;;;;;;52.20;27.60;;;;;;;6.63;100.00;99940.25;5069042;28;20041;-66
2023/12/09 09:43:06;;;;;;;47.47;26.83;;;;;;;6.75;100.00;99938.94;5063769;28;21794;-69
2023/12/09 09:45:36;;;;;;;48.58;26.80;;;;;;;6.86;100.00;99946.41;5080080;28;20119;-67
2023/12/09 09:48:05;;;;;;;53.08;26.90;;;;;;;6.92;100.00;99965.47;5077953;28;20055;-66
2023/12/09 09:50:42;;;;;;;44.90;25.80;;;;;;;6.97;100.00;99963.50;5067021;28;20060;-67
2023/12/09 09:53:13;;;;;;;43.72;25.15;;;;;;;7.03;100.00;99957.16;5059215;28;20076;-66
2023/12/09 09:55:42;;;;;;;44.95;26.13;;;;;;;7.02;100.00;99953.66;5069216;28;20724;-65
2023/12/09 09:58:12;;;;;;;42.97;25.20;;;;;;;7.05;100.00;99965.84;5060544;28;20063;-66
2023/12/09 10:00:42;;;;;;;41.75;25.65;;;;;;;7.07;100.00;99958.75;5052007;28;20196;-66
2023/12/09 10:03:11;;;;;;;46.77;25.13;;;;;;;7.11;100.00;99954.19;5054753;28;20054;-66
2023/12/09 10:05:40;;;;;;;41.63;25.63;;;;;;;7.16;100.00;99957.50;5065097;28;20076;-66
2023/12/09 10:08:11;;;;;;;40.05;24.40;;;;;;;7.24;100.00;99945.72;5074377;28;20053;-66
2023/12/09 10:10:40;;;;;;;40.30;23.45;;;;;;;7.30;100.00;99939.38;5064240;28;20052;-66
2023/12/09 10:13:09;;;;;;;36.92;22.48;;;;;;;7.38;100.00;99932.88;5058737;28;20181;-65
2023/12/09 10:15:37;;;;;;;41.28;20.98;;;;;;;7.41;100.00;99926.59;5061653;28;20048;-66
2023/12/09 10:18:14;;;;;;;36.97;20.13;;;;;;;7.44;100.00;99920.34;5046114;28;20049;-66
2023/12/09 10:20:43;;;;;;;33.75;19.88;;;;;;;7.46;100.00;99913.25;5059361;28;20043;-66
2023/12/09 10:23:18;;;;;;;37.53;19.67;;;;;;;7.46;100.00;99910.63;5041496;28;20040;-66
2023/12/09 10:25:47;;;;;;;35.35;18.60;;;;;;;7.45;100.00;99914.19;5063319;28;20040;-66
2023/12/09 10:28:15;;;;;;;33.25;17.38;;;;;;;7.56;100.00;99896.13;5063940;28;20036;-67
2023/12/09 10:30:43;;;;;;;35.03;18.13;;;;;;;7.49;100.00;99889.41;5065812;28;20067;-66
2023/12/09 10:33:13;;;;;;;34.22;18.27;;;;;;;7.47;100.00;99878.94;5056236;28;20132;-67
2023/12/09 10:35:41;;;;;;;33.97;18.13;;;;;;;7.40;100.00;99864.31;5067921;28;20055;-65
2023/12/09 10:38:09;;;;;;;34.05;16.98;;;;;;;7.46;100.00;99857.94;5064952;28;20489;-66
2023/12/09 10:40:38;;;;;;;29.92;17.15;;;;;;;7.47;100.00;99857.00;5079051;28;20052;-66
2023/12/09 10:43:06;;;;;;;35.10;17.88;;;;;;;7.51;100.00;99855.97;5057833;28;20044;-64
2023/12/09 10:45:34;;;;;;;33.65;17.52;;;;;;;7.57;100.00;99827.56;5062003;28;20489;-68
2023/12/09 10:48:03;;;;;;;32.03;16.55;;;;;;;7.69;100.00;99815.66;5064598;28;20361;-67
2023/12/09 10:50:33;;;;;;;30.85;15.75;;;;;;;7.71;100.00;99813.81;5066339;28;20041;-67
2023/12/09 10:53:01;;;;;;;30.55;15.45;;;;;;;7.71;100.00;99812.00;5064072;28;20183;-67
2023/12/09 10:55:29;;;;;;;28.73;14.25;;;;;;;7.73;100.00;99802.25;5080153;28;20056;-66
2023/12/09 10:58:01;;;;;;;28.75;16.23;;;;;;;7.74;100.00;99782.00;5066045;28;20048;-65
2023/12/09 11:00:30;;;;;;;30.38;15.40;;;;;;;7.81;100.00;99778.19;5071325;28;21365;-68
2023/12/09 11:03:00;;;;;;;27.33;15.68;;;;;;;7.90;100.00;99761.94;5061396;28;20631;-66
2023/12/09 11:05:29;;;;;;;;;;;;;;;8.00;100.00;99757.13;5063937;28;20117;-67
2023/12/09 11:08:00;;;;;;;27.33;13.25;;;;;;;8.04;100.00;99746.34;5063756;28;19920;-66
2023/12/09 11:10:29;;;;;;;24.73;12.73;;;;;;;8.15;100.00;99737.09;5067407;28;20103;-66
2023/12/09 11:12:57;;;;;;;21.00;11.30;;;;;;;8.19;100.00;99733.34;5066079;28;20040;-66
2023/12/09 11:15:30;;;;;;;24.17;12.43;;;;;;;8.27;100.00;99731.22;5080817;28;20046;-66
2023/12/09 11:18:08;;;;;;;25.90;11.52;;;;;;;8.26;100.00;99727.72;5064628;28;20057;-66
2023/12/09 11:20:39;;;;;;;23.27;12.27;;;;;;;8.30;100.00;99728.44;5048049;28;20052;-67